createdAt,value
2023-10-08T00:00:14.106Z,470.35
2023-10-08T00:02:40.566Z,484.50
2023-10-08T00:05:07.888Z,472.10
2023-10-08T00:07:34.295Z,493.55
2023-10-08T00:10:00.676Z,534.28
2023-10-08T00:12:27.135Z,536.83
2023-10-08T00:14:53.518Z,549.83
2023-10-08T00:17:19.981Z,562.20
2023-10-08T00:19:46.479Z,559.85
2023-10-08T00:22:12.896Z,567.95
2023-10-08T00:24:39.285Z,571.80
2023-10-08T00:27:05.925Z,574.35
2023-10-08T00:29:32.412Z,576.60
2023-10-08T00:31:59.151Z,586.08
2023-10-08T00:34:26.044Z,579.42
2023-10-08T00:36:52.409Z,579.22
2023-10-08T00:39:19.228Z,583.47
2023-10-08T00:41:45.936Z,570.47
2023-10-08T00:44:13.345Z,562.67
2023-10-08T00:46:40.265Z,564.55
2023-10-08T00:49:06.825Z,558.03
2023-10-08T00:51:33.233Z,560.70
2023-10-08T00:54:03.897Z,557.97
2023-10-08T00:56:31.113Z,568.55
2023-10-08T00:58:57.537Z,570.25
2023-10-08T01:01:24.116Z,572.65
2023-10-08T01:03:50.736Z,575.10
2023-10-08T01:06:20.582Z,570.00
2023-10-08T01:08:47.581Z,565.42
2023-10-08T01:11:17.638Z,569.65
2023-10-08T01:13:44.150Z,574.25
2023-10-08T01:16:10.583Z,583.47
2023-10-08T01:18:37.213Z,579.05
2023-10-08T01:21:03.761Z,579.60
2023-10-08T01:23:30.157Z,577.30
2023-10-08T01:25:56.654Z,577.88
2023-10-08T01:28:23.028Z,569.85
2023-10-08T01:30:49.428Z,561.50
2023-10-08T01:33:16.037Z,554.92
2023-10-08T01:35:43.184Z,561.80
2023-10-08T01:38:09.582Z,567.67
2023-10-08T01:40:36.092Z,577.10
2023-10-08T01:43:02.577Z,574.53
2023-10-08T01:45:28.985Z,583.67
2023-10-08T01:47:55.525Z,589.15
2023-10-08T01:50:22.284Z,593.88
2023-10-08T01:52:49.545Z,610.10
2023-10-08T01:55:16.045Z,589.45
2023-10-08T01:57:42.449Z,589.63
2023-10-08T02:00:09.178Z,599.13
2023-10-08T02:02:35.739Z,597.58
2023-10-08T02:05:02.226Z,594.70
2023-10-08T02:07:28.680Z,588.40
2023-10-08T02:09:55.180Z,588.75
2023-10-08T02:12:21.563Z,587.22
2023-10-08T02:14:47.942Z,590.17
2023-10-08T02:17:14.500Z,583.78
2023-10-08T02:19:41.014Z,586.22
2023-10-08T02:22:07.422Z,597.85
2023-10-08T02:24:33.906Z,600.65
2023-10-08T02:27:00.310Z,598.38
2023-10-08T02:29:28.204Z,625.33
2023-10-08T02:31:54.744Z,641.72
2023-10-08T02:34:21.477Z,607.40
2023-10-08T02:36:48.158Z,608.63
2023-10-08T02:39:14.975Z,604.88
2023-10-08T02:41:41.882Z,601.42
2023-10-08T02:44:08.741Z,589.15
2023-10-08T02:46:35.205Z,591.60
2023-10-08T02:49:01.595Z,591.50
2023-10-08T02:51:27.964Z,591.20
2023-10-08T02:53:54.457Z,598.08
2023-10-08T02:56:20.977Z,580.75
2023-10-08T02:58:47.372Z,580.88
2023-10-08T03:01:13.971Z,583.63
2023-10-08T03:03:41.300Z,580.47
2023-10-08T03:06:07.868Z,577.83
2023-10-08T03:08:34.312Z,577.20
2023-10-08T03:11:00.684Z,565.33
2023-10-08T03:13:27.095Z,571.10
2023-10-08T03:15:53.607Z,562.53
2023-10-08T03:18:20.076Z,557.50
2023-10-08T03:20:46.559Z,553.08
2023-10-08T03:23:14.771Z,547.78
2023-10-08T03:25:41.561Z,547.40
2023-10-08T03:28:11.214Z,546.80
2023-10-08T03:30:37.633Z,547.80
2023-10-08T03:33:04.291Z,541.58
2023-10-08T03:35:30.784Z,543.40
2023-10-08T03:37:57.338Z,543.13
2023-10-08T03:40:23.764Z,538.00
2023-10-08T03:42:50.180Z,557.47
2023-10-08T03:45:16.720Z,550.40
2023-10-08T03:47:43.169Z,542.35
2023-10-08T03:50:09.750Z,547.63
2023-10-08T03:52:37.026Z,551.47
2023-10-08T03:55:03.664Z,543.72
2023-10-08T03:57:30.046Z,543.85
2023-10-08T03:59:56.531Z,563.63
2023-10-08T04:02:23.020Z,593.42
2023-10-08T04:04:49.608Z,572.22
2023-10-08T04:07:17.259Z,569.75
2023-10-08T04:09:43.639Z,570.90
2023-10-08T04:12:10.055Z,571.45
2023-10-08T04:14:36.512Z,576.50
2023-10-08T04:17:03.017Z,579.60
2023-10-08T04:19:30.976Z,613.05
2023-10-08T04:21:57.683Z,604.28
2023-10-08T04:24:24.704Z,595.55
2023-10-08T04:26:51.156Z,590.70
2023-10-08T04:29:17.807Z,610.42
2023-10-08T04:31:44.329Z,558.95
2023-10-08T04:34:11.190Z,564.83
2023-10-08T04:36:37.734Z,568.50
2023-10-08T04:39:04.119Z,567.72
2023-10-08T04:41:30.556Z,556.17
2023-10-08T04:43:57.247Z,558.95
2023-10-08T04:46:23.700Z,554.90
2023-10-08T04:48:50.123Z,552.22
2023-10-08T04:51:16.794Z,551.95
2023-10-08T04:53:43.194Z,552.47
2023-10-08T04:56:10.103Z,555.10
2023-10-08T04:58:36.703Z,551.53
2023-10-08T05:01:04.246Z,561.75
2023-10-08T05:03:30.811Z,561.58
2023-10-08T05:05:57.375Z,559.83
2023-10-08T05:08:23.802Z,561.13
2023-10-08T05:10:50.185Z,552.25
2023-10-08T05:13:16.610Z,555.58
2023-10-08T05:15:43.393Z,561.30
2023-10-08T05:18:09.971Z,561.88
2023-10-08T05:20:36.472Z,553.33
2023-10-08T05:23:06.766Z,555.40
2023-10-08T05:25:33.222Z,562.85
2023-10-08T05:27:59.731Z,562.58
2023-10-08T05:30:27.493Z,559.63
2023-10-08T05:32:54.269Z,555.97
2023-10-08T05:35:20.989Z,553.20
2023-10-08T05:37:47.426Z,556.97
2023-10-08T05:40:13.841Z,553.03
2023-10-08T05:42:40.266Z,549.33
2023-10-08T05:45:06.850Z,557.80
2023-10-08T05:47:33.439Z,549.65
2023-10-08T05:50:00.556Z,550.55
2023-10-08T05:52:26.970Z,558.33
2023-10-08T05:54:53.554Z,558.55
2023-10-08T05:57:19.949Z,559.90
2023-10-08T05:59:46.885Z,559.65
2023-10-08T06:02:13.270Z,568.10
2023-10-08T06:04:39.722Z,561.10
2023-10-08T06:07:06.111Z,562.80
2023-10-08T06:09:32.487Z,566.88
2023-10-08T06:11:58.994Z,570.47
2023-10-08T06:14:25.488Z,572.83
2023-10-08T06:16:53.989Z,571.90
2023-10-08T06:19:20.468Z,580.67
2023-10-08T06:21:46.870Z,579.50
2023-10-08T06:24:13.264Z,570.92
2023-10-08T06:26:40.202Z,581.30
2023-10-08T06:29:06.593Z,581.13
2023-10-08T06:31:33.018Z,556.97
2023-10-08T06:33:59.651Z,557.83
2023-10-08T06:36:26.077Z,552.17
2023-10-08T06:38:52.501Z,557.65
2023-10-08T06:41:22.963Z,556.85
2023-10-08T06:44:05.594Z,554.40
2023-10-08T06:46:32.445Z,555.22
2023-10-08T06:49:05.792Z,549.72
2023-10-08T06:51:32.503Z,548.03
2023-10-08T06:53:58.999Z,545.25
2023-10-08T06:56:25.458Z,555.50
2023-10-08T06:58:51.885Z,572.08
2023-10-08T07:01:18.446Z,590.30
2023-10-08T07:03:45.051Z,634.22
2023-10-08T07:06:11.568Z,619.10
2023-10-08T07:08:38.001Z,611.88
2023-10-08T07:11:04.514Z,610.53
2023-10-08T07:13:30.922Z,599.20
2023-10-08T07:15:57.916Z,595.88
2023-10-08T07:18:24.381Z,596.83
2023-10-08T07:20:50.855Z,590.58
2023-10-08T07:23:17.300Z,583.38
2023-10-08T07:25:43.694Z,584.87
2023-10-08T07:28:10.092Z,576.28
2023-10-08T07:30:40.207Z,574.33
2023-10-08T07:33:06.851Z,578.10
2023-10-08T07:35:33.415Z,566.38
2023-10-08T07:37:59.888Z,566.63
2023-10-08T07:40:28.805Z,567.53
2023-10-08T07:42:55.207Z,562.60
2023-10-08T07:45:21.725Z,564.28
2023-10-08T07:47:48.666Z,560.40
2023-10-08T07:50:15.422Z,556.00
2023-10-08T07:52:42.665Z,557.95
2023-10-08T07:55:09.154Z,569.13
2023-10-08T07:57:35.572Z,565.17
2023-10-08T08:00:02.061Z,569.05
2023-10-08T08:02:29.319Z,571.00
2023-10-08T08:04:55.742Z,577.40
2023-10-08T08:07:22.397Z,576.53
2023-10-08T08:09:50.538Z,574.13
2023-10-08T08:12:17.344Z,578.05
2023-10-08T08:14:43.784Z,570.92
2023-10-08T08:17:10.193Z,573.42
2023-10-08T08:19:36.592Z,573.03
2023-10-08T08:22:03.056Z,578.17
2023-10-08T08:24:29.443Z,575.55
2023-10-08T08:26:56.389Z,566.05
2023-10-08T08:29:22.862Z,567.92
2023-10-08T08:31:49.279Z,571.05
2023-10-08T08:34:15.746Z,560.40
2023-10-08T08:36:42.277Z,556.67
2023-10-08T08:39:08.660Z,551.75
2023-10-08T08:41:37.933Z,556.58
2023-10-08T08:44:05.099Z,550.83
2023-10-08T08:46:32.908Z,546.92
2023-10-08T08:49:09.305Z,551.90
2023-10-08T08:51:36.331Z,546.83
2023-10-08T08:54:03.392Z,553.25
2023-10-08T08:56:31.030Z,551.63
2023-10-08T08:58:58.732Z,552.85
2023-10-08T09:01:25.169Z,550.92
2023-10-08T09:03:51.813Z,551.33
2023-10-08T09:06:18.397Z,549.95
2023-10-08T09:08:44.833Z,549.35
2023-10-08T09:11:14.636Z,551.13
2023-10-08T09:13:41.036Z,554.47
2023-10-08T09:16:14.638Z,563.85
2023-10-08T09:18:48.603Z,569.63
2023-10-08T09:21:16.257Z,610.70
2023-10-08T09:23:43.975Z,594.65
2023-10-08T09:26:11.072Z,586.78
2023-10-08T09:28:38.248Z,591.42
2023-10-08T09:31:04.681Z,589.67
2023-10-08T09:33:31.334Z,597.50
2023-10-08T09:35:59.353Z,592.75
2023-10-08T09:38:25.948Z,598.35
2023-10-08T09:40:53.124Z,594.13
2023-10-08T09:43:19.848Z,588.80
2023-10-08T09:45:53.169Z,585.42
2023-10-08T09:48:21.556Z,588.53
2023-10-08T09:50:49.267Z,615.80
2023-10-08T09:53:15.784Z,610.00
2023-10-08T09:55:44.660Z,589.67
2023-10-08T09:58:12.909Z,606.88
2023-10-08T10:00:39.425Z,591.22
2023-10-08T10:03:06.412Z,588.45
2023-10-08T10:05:33.668Z,589.45
2023-10-08T10:08:00.094Z,589.15
2023-10-08T10:10:27.414Z,596.63
2023-10-08T10:12:54.031Z,600.35
2023-10-08T10:15:30.647Z,596.85
2023-10-08T10:18:09.042Z,575.17
2023-10-08T10:20:39.954Z,576.38
2023-10-08T10:23:25.246Z,585.60
2023-10-08T10:25:51.636Z,584.50
2023-10-08T10:28:26.937Z,587.92
2023-10-08T10:30:53.557Z,589.22
2023-10-08T10:33:20.433Z,586.00
2023-10-08T10:35:53.352Z,587.47
2023-10-08T10:38:20.226Z,588.53
2023-10-08T10:40:49.386Z,583.53
2023-10-08T10:43:15.848Z,578.75
2023-10-08T10:45:42.469Z,590.92
2023-10-08T10:48:08.968Z,588.25
2023-10-08T10:50:35.490Z,586.88
2023-10-08T10:53:02.825Z,599.45
2023-10-08T10:55:29.270Z,579.33
2023-10-08T10:57:57.361Z,587.35
2023-10-08T11:00:25.024Z,588.95
2023-10-08T11:02:51.453Z,585.00
2023-10-08T11:05:18.044Z,578.85
2023-10-08T11:07:44.438Z,581.88
2023-10-08T11:10:10.903Z,576.17
2023-10-08T11:12:37.449Z,567.13
2023-10-08T11:15:04.053Z,574.15
2023-10-08T11:17:33.032Z,563.08
2023-10-08T11:19:59.503Z,568.60
2023-10-08T11:22:41.447Z,571.80
2023-10-08T11:25:20.432Z,569.53
2023-10-08T11:27:46.823Z,571.67
2023-10-08T11:30:15.628Z,573.13
2023-10-08T11:32:42.349Z,576.53
2023-10-08T11:35:15.404Z,578.78
2023-10-08T11:37:45.715Z,576.90
2023-10-08T11:40:22.740Z,578.45
2023-10-08T11:42:50.178Z,578.30
2023-10-08T11:45:16.549Z,581.15
2023-10-08T11:47:42.986Z,596.40
2023-10-08T11:50:09.632Z,588.47
2023-10-08T11:52:36.009Z,590.65
2023-10-08T11:55:02.476Z,590.72
2023-10-08T11:57:28.924Z,587.47
2023-10-08T11:59:55.576Z,598.03
2023-10-08T12:02:22.672Z,592.67
2023-10-08T12:04:49.716Z,597.58
2023-10-08T12:07:16.540Z,584.13
2023-10-08T12:09:42.917Z,578.47
2023-10-08T12:12:09.354Z,584.63
2023-10-08T12:14:38.578Z,583.40
2023-10-08T12:17:05.595Z,585.63
2023-10-08T12:19:31.997Z,589.35
2023-10-08T12:21:58.414Z,612.80
2023-10-08T12:24:24.819Z,603.05
2023-10-08T12:26:51.240Z,661.85
2023-10-08T12:29:17.659Z,595.92
2023-10-08T12:31:44.423Z,523.03
2023-10-08T12:34:11.468Z,573.45
2023-10-08T12:36:38.270Z,465.30
2023-10-08T12:39:04.846Z,530.95
2023-10-08T12:41:31.325Z,596.90
2023-10-08T12:43:57.745Z,500.33
2023-10-08T12:46:24.244Z,620.42
2023-10-08T12:48:51.973Z,560.38
2023-10-08T12:51:18.444Z,552.10
2023-10-08T12:53:45.143Z,512.30
2023-10-08T12:56:11.679Z,532.63
2023-10-08T12:58:38.068Z,513.75
2023-10-08T13:01:04.575Z,513.38
2023-10-08T13:03:31.247Z,516.10
2023-10-08T13:05:58.360Z,523.75
2023-10-08T13:08:24.845Z,519.03
2023-10-08T13:10:51.323Z,513.45
2023-10-08T13:13:17.709Z,513.33
2023-10-08T13:15:44.131Z,504.67
2023-10-08T13:18:10.733Z,540.58
2023-10-08T13:20:37.338Z,539.03
2023-10-08T13:23:04.265Z,509.30
2023-10-08T13:25:31.086Z,558.50
2023-10-08T13:27:57.526Z,526.97
2023-10-08T13:30:23.976Z,529.17
2023-10-08T13:32:50.568Z,513.08
2023-10-08T13:35:18.362Z,496.30
2023-10-08T13:37:44.768Z,513.70
2023-10-08T13:40:11.403Z,498.70
2023-10-08T13:42:37.764Z,494.67
2023-10-08T13:45:04.444Z,504.45
2023-10-08T13:47:30.946Z,515.28
2023-10-08T13:49:57.372Z,552.25
2023-10-08T13:52:23.752Z,554.78
2023-10-08T13:54:50.168Z,578.65
2023-10-08T13:57:16.590Z,499.38
2023-10-08T13:59:43.044Z,549.10
2023-10-08T14:02:09.754Z,531.78
2023-10-08T14:04:36.359Z,544.53
2023-10-08T14:07:03.040Z,544.35
2023-10-08T14:09:29.529Z,534.80
2023-10-08T14:11:55.988Z,527.63
2023-10-08T14:14:22.398Z,489.83
2023-10-08T14:16:49.578Z,494.83
2023-10-08T14:19:15.970Z,487.05
2023-10-08T14:21:42.688Z,487.38
2023-10-08T14:24:09.228Z,488.27
2023-10-08T14:26:35.698Z,485.33
2023-10-08T14:29:02.126Z,487.27
2023-10-08T14:31:28.562Z,487.02
2023-10-08T14:33:55.281Z,488.20
2023-10-08T14:36:22.108Z,537.70
2023-10-08T14:38:48.550Z,514.17
2023-10-08T14:41:14.955Z,506.90
2023-10-08T14:43:41.337Z,514.08
2023-10-08T14:46:07.820Z,503.83
2023-10-08T14:48:34.493Z,502.92
2023-10-08T14:51:01.676Z,505.05
2023-10-08T14:53:28.209Z,498.48
2023-10-08T14:55:54.783Z,492.08
2023-10-08T14:58:21.193Z,490.83
2023-10-08T15:00:47.623Z,487.95
2023-10-08T15:03:14.269Z,485.88
2023-10-08T15:05:40.972Z,484.58
2023-10-08T15:08:07.486Z,480.30
2023-10-08T15:10:33.933Z,480.08
2023-10-08T15:13:00.308Z,482.25
2023-10-08T15:15:26.801Z,466.33
2023-10-08T15:17:53.342Z,469.20
2023-10-08T15:20:19.900Z,466.23
2023-10-08T15:22:47.415Z,461.47
2023-10-08T15:25:14.329Z,455.80
2023-10-08T15:27:41.268Z,456.55
2023-10-08T15:30:11.428Z,453.70
2023-10-08T15:32:39.067Z,458.13
2023-10-08T15:35:05.734Z,448.45
2023-10-08T15:37:32.187Z,455.80
2023-10-08T15:39:58.600Z,454.70
2023-10-08T15:42:25.022Z,455.23
2023-10-08T15:44:51.528Z,455.52
2023-10-08T15:47:18.014Z,484.92
2023-10-08T15:49:44.378Z,480.90
2023-10-08T15:52:10.895Z,470.88
2023-10-08T15:54:37.343Z,451.08
2023-10-08T15:57:05.412Z,447.08
2023-10-08T15:59:31.935Z,455.63
2023-10-08T16:02:00.419Z,446.67
2023-10-08T16:04:28.040Z,444.60
2023-10-08T16:06:54.532Z,445.25
2023-10-08T16:09:20.986Z,444.65
2023-10-08T16:11:47.450Z,442.52
2023-10-08T16:14:13.885Z,437.90
2023-10-08T16:16:40.340Z,463.25
2023-10-08T16:19:06.711Z,480.40
2023-10-08T16:21:33.188Z,463.35
2023-10-08T16:23:59.603Z,450.45
2023-10-08T16:26:26.320Z,438.50
2023-10-08T16:28:52.855Z,432.75
2023-10-08T16:31:19.259Z,435.25
2023-10-08T16:33:46.107Z,442.27
2023-10-08T16:36:13.252Z,435.75
2023-10-08T16:38:39.702Z,438.55
2023-10-08T16:41:06.116Z,438.83
2023-10-08T16:43:32.553Z,439.30
2023-10-08T16:45:58.978Z,437.85
2023-10-08T16:48:25.568Z,436.17
2023-10-08T16:50:52.413Z,438.80
2023-10-08T16:53:18.916Z,441.90
2023-10-08T16:55:45.348Z,435.70
2023-10-08T16:58:11.766Z,435.20
2023-10-08T17:00:38.585Z,425.73
2023-10-08T17:03:05.174Z,451.17
2023-10-08T17:05:31.789Z,454.83
2023-10-08T17:07:58.211Z,509.88
2023-10-08T17:10:26.821Z,481.98
2023-10-08T17:12:53.330Z,458.00
2023-10-08T17:15:19.920Z,437.30
2023-10-08T17:17:46.473Z,444.63
2023-10-08T17:20:13.040Z,521.20
2023-10-08T17:22:39.447Z,478.45
2023-10-08T17:25:06.120Z,476.65
2023-10-08T17:27:33.304Z,452.77
2023-10-08T17:29:59.802Z,475.10
2023-10-08T17:32:27.169Z,477.08
2023-10-08T17:34:53.945Z,468.13
2023-10-08T17:37:20.325Z,507.05
2023-10-08T17:39:46.829Z,510.08
2023-10-08T17:42:13.484Z,404.15
2023-10-08T17:44:39.950Z,400.45
2023-10-08T17:47:06.344Z,389.95
2023-10-08T17:49:33.911Z,402.05
2023-10-08T17:52:00.342Z,436.65
2023-10-08T17:54:26.757Z,444.92
2023-10-08T17:56:53.215Z,482.85
2023-10-08T17:59:19.628Z,481.25
2023-10-08T18:01:46.047Z,444.87
2023-10-08T18:04:13.145Z,467.88
2023-10-08T18:06:39.702Z,486.77
2023-10-08T18:09:06.150Z,513.45
2023-10-08T18:11:32.620Z,516.55
2023-10-08T18:13:58.989Z,530.75
2023-10-08T18:16:25.432Z,561.90
2023-10-08T18:18:51.896Z,576.25
2023-10-08T18:21:18.465Z,480.30
2023-10-08T18:23:45.460Z,636.15
2023-10-08T18:26:12.586Z,654.22
2023-10-08T18:28:39.121Z,622.17
2023-10-08T18:31:06.040Z,644.90
2023-10-08T18:33:32.674Z,618.88
2023-10-08T18:36:06.094Z,640.88
2023-10-08T18:38:32.600Z,598.38
2023-10-08T18:40:59.756Z,648.85
2023-10-08T18:43:26.143Z,650.72
2023-10-08T18:45:52.511Z,653.85
2023-10-08T18:48:19.013Z,624.13
2023-10-08T18:50:45.513Z,624.97
2023-10-08T18:53:11.925Z,618.45
2023-10-08T18:55:52.700Z,605.40
2023-10-08T18:58:20.058Z,525.33
2023-10-08T19:00:47.025Z,515.70
2023-10-08T19:03:13.485Z,602.03
2023-10-08T19:05:39.920Z,579.67
2023-10-08T19:08:06.609Z,562.65
2023-10-08T19:10:33.035Z,619.55
2023-10-08T19:12:59.418Z,551.90
2023-10-08T19:15:25.972Z,533.75
2023-10-08T19:17:52.452Z,581.95
2023-10-08T19:20:19.007Z,549.22
2023-10-08T19:22:46.896Z,499.45
2023-10-08T19:25:13.445Z,475.40
2023-10-08T19:27:39.828Z,450.75
2023-10-08T19:30:06.596Z,447.20
2023-10-08T19:32:36.369Z,439.67
2023-10-08T19:35:02.970Z,432.40
2023-10-08T19:37:29.601Z,406.50
2023-10-08T19:39:55.985Z,439.33
2023-10-08T19:42:22.376Z,389.70
2023-10-08T19:44:48.854Z,384.70
2023-10-08T19:47:15.262Z,378.92
2023-10-08T19:49:41.661Z,381.17
2023-10-08T19:52:08.240Z,370.65
2023-10-08T19:54:34.620Z,542.38
2023-10-08T19:57:01.074Z,565.50
2023-10-08T19:59:27.651Z,531.83
2023-10-08T20:01:54.062Z,579.08
2023-10-08T20:04:20.685Z,517.95
2023-10-08T20:06:47.397Z,507.40
2023-10-08T20:09:14.236Z,486.55
2023-10-08T20:11:40.889Z,513.80
2023-10-08T20:14:07.355Z,587.00
2023-10-08T20:16:33.784Z,528.10
2023-10-08T20:19:00.236Z,454.35
2023-10-08T20:21:26.741Z,471.70
2023-10-08T20:23:53.152Z,479.52
2023-10-08T20:26:19.583Z,501.70
2023-10-08T20:28:46.009Z,506.00
2023-10-08T20:31:15.522Z,479.30
2023-10-08T20:33:43.069Z,481.25
2023-10-08T20:36:09.713Z,476.92
2023-10-08T20:38:36.251Z,481.17
2023-10-08T20:41:02.815Z,474.65
2023-10-08T20:43:29.403Z,477.85
2023-10-08T20:45:55.892Z,474.33
2023-10-08T20:48:22.398Z,475.80
2023-10-08T20:50:49.081Z,544.17
2023-10-08T20:53:15.463Z,518.45
2023-10-08T20:55:41.848Z,457.85
2023-10-08T20:58:09.024Z,499.13
2023-10-08T21:00:35.976Z,549.30
2023-10-08T21:03:06.801Z,631.50
2023-10-08T21:05:34.838Z,622.45
2023-10-08T21:08:01.317Z,613.33
2023-10-08T21:10:27.695Z,624.90
2023-10-08T21:12:54.828Z,732.42
2023-10-08T21:15:22.065Z,722.65
2023-10-08T21:17:48.894Z,726.63
2023-10-08T21:20:15.977Z,713.97
2023-10-08T21:22:43.138Z,587.92
2023-10-08T21:25:09.611Z,516.08
2023-10-08T21:27:40.027Z,546.08
2023-10-08T21:30:07.066Z,550.88
2023-10-08T21:32:35.051Z,551.80
2023-10-08T21:35:01.545Z,553.65
2023-10-08T21:37:27.985Z,557.05
2023-10-08T21:39:54.372Z,537.92
2023-10-08T21:42:21.353Z,531.28
2023-10-08T21:44:48.037Z,523.53
2023-10-08T21:47:14.460Z,526.67
2023-10-08T21:49:41.394Z,506.80
2023-10-08T21:52:07.838Z,483.70
2023-10-08T21:54:34.319Z,484.80
2023-10-08T21:57:01.064Z,473.30
2023-10-08T21:59:27.479Z,477.85
2023-10-08T22:01:53.847Z,463.67
2023-10-08T22:04:20.369Z,451.02
2023-10-08T22:06:46.759Z,422.65
2023-10-08T22:09:16.553Z,511.50
2023-10-08T22:11:43.510Z,533.60
2023-10-08T22:14:13.049Z,533.17
2023-10-08T22:16:39.836Z,523.75
2023-10-08T22:19:06.458Z,528.90
2023-10-08T22:21:32.864Z,499.58
2023-10-08T22:23:59.334Z,538.08
2023-10-08T22:26:25.884Z,531.85
2023-10-08T22:28:52.339Z,577.80
2023-10-08T22:31:18.821Z,562.00
2023-10-08T22:33:45.368Z,573.63
2023-10-08T22:36:11.862Z,578.63
2023-10-08T22:38:38.256Z,586.33
2023-10-08T22:41:04.693Z,565.38
2023-10-08T22:43:31.111Z,570.60
2023-10-08T22:45:57.783Z,580.97
2023-10-08T22:48:24.419Z,583.75
2023-10-08T22:50:50.917Z,575.92
2023-10-08T22:53:17.760Z,571.60
2023-10-08T22:55:44.190Z,574.40
2023-10-08T22:58:10.583Z,570.20
2023-10-08T23:00:37.113Z,580.38
2023-10-08T23:03:03.897Z,575.13
2023-10-08T23:05:30.460Z,560.15
2023-10-08T23:07:56.857Z,558.63
2023-10-08T23:10:23.449Z,553.03
2023-10-08T23:12:50.111Z,560.33
2023-10-08T23:15:16.574Z,555.40
2023-10-08T23:17:43.153Z,548.20
2023-10-08T23:20:10.025Z,550.33
2023-10-08T23:22:36.407Z,546.42
2023-10-08T23:25:03.584Z,542.50
2023-10-08T23:27:30.027Z,542.40
2023-10-08T23:29:56.490Z,542.63
2023-10-08T23:32:23.072Z,537.47
2023-10-08T23:34:52.532Z,534.63
2023-10-08T23:37:18.904Z,526.95
2023-10-08T23:39:45.332Z,536.15
2023-10-08T23:42:11.715Z,529.67
2023-10-08T23:44:38.084Z,528.40
2023-10-08T23:47:04.537Z,529.97
2023-10-08T23:49:31.362Z,524.25
2023-10-08T23:51:58.198Z,524.50
2023-10-08T23:54:24.715Z,519.97
2023-10-08T23:56:51.664Z,521.78
2023-10-08T23:59:18.496Z,518.08
